Southern Ontario METAR Reports

CYSN - St.Catharines
Updated: 04/11/2021 6:00pm
Light rain, Overcast
Light rain, Overcast
 Wind from ENE
Wind: ENE 17 km/h
Temperature: 14°C
Dew Point: 12°C
Humidity: 88%
Barometer: 998.6 hPa
Summary: Light rain
Clouds: Overcast
Visibility: 24 km
Cloud details: Few Clouds 1219 m
Overcast 2469 m
2021/04/11 22:00 CYSN 112200Z 07009KT 15SM -RA FEW040 OVC081 14/12 A2949 RMK SC2AC6 SLP986 DENSITY ALT 800FT
CYHM - Hamilton
Updated: 04/11/2021 6:00pm
Light rain, Mist, Overcast
Light rain, Mist, Overcast
 Wind from ENE
Wind: ENE 15 km/h
Temperature: 12°C
Dew Point: 12°C
Humidity: 100%
Barometer: 999 hPa
Summary: Light rain, Mist
Clouds: Overcast
Visibility: 5 km
Cloud details: Few Clouds 30 m
Partly cloudy 671 m
Mostly cloudy 2134 m
Overcast 2743 m
2021/04/11 22:00 CYHM 112200Z 07008KT 3SM -RA BR FEW001 SCT022 BKN070 OVC090 12/12 A2950 RMK SF2SC2AC3AS1 VIS S- W 6 PCPN VRY LGT SLP992 DENSITY ALT 1100FT
 
CYYZ - Toronto
Updated: 04/11/2021 6:08pm
Light rain, Mostly cloudy
Light rain, Mostly cloudy
 Wind from ENE
Wind: ENE 11 km/h
Temperature: 15°C
Dew Point: 13°C
Humidity: 88%
Barometer: 999.3 hPa
Summary: Light rain
Clouds: Mostly cloudy
Visibility: 24 km
Cloud details: Few Clouds 549 m
Mostly cloudy 2347 m
2021/04/11 22:08 CYYZ 112208Z 06006KT 050V110 15SM -RA FEW018 BKN077 15/13 A2951 RMK CF1AC6 SLP995 DENSITY ALT 1200FT
CYKF - Waterloo
Updated: 04/11/2021 6:01pm
Overcast
Overcast
 Wind from ENE
Wind: ENE 9 km/h
Temperature: 13°C
Dew Point: 11°C
Humidity: 88%
Barometer: 999 hPa
Clouds: Overcast
Visibility: 14 km
Cloud details: Few Clouds 1158 m
Mostly cloudy 1829 m
Mostly cloudy 2682 m
Overcast 3962 m
2021/04/11 22:01 CYKF 112201Z AUTO 06005KT 9SM FEW038 BKN060 BKN088 OVC130 13/11 A2950 RMK SLP992 DENSITY ALT 1600FT
 
CYXU - London
Updated: 04/11/2021 6:00pm
Partly cloudy
Partly cloudy
 Wind from SSW
Wind: SSW 17 km/h
Temperature: 17°C
Dew Point: 7°C
Humidity: 52%
Barometer: 998.3 hPa
Clouds: Partly cloudy
Visibility: 24 km
Cloud details: Partly cloudy 3353 m
Partly cloudy 7620 m
2021/04/11 22:00 CYXU 112200Z 20009KT 15SM SCT110 SCT250 17/07 A2948 RMK AC3CI1 SLP984 DENSITY ALT 1900FT
CYQG - Windsor
Updated: 04/11/2021 6:06pm
Overcast
Overcast
 Wind from S
Wind: S 11 km/h
Temperature: 13°C
Dew Point: 10°C
Humidity: 82%
Barometer: 997.6 hPa
Clouds: Overcast
Visibility: 14 km
Cloud details: Few Clouds 945 m
Partly cloudy 1463 m
Mostly cloudy 1676 m
Overcast 2134 m
2021/04/11 22:06 CYQG 112206Z AUTO 19006KT 9SM FEW031 SCT048 BKN055 OVC070 13/10 A2946 RMK SLP979 DENSITY ALT 1100FT
 
CYZR - Sarnia
Updated: 04/11/2021 6:00pm
Partly cloudy
Partly cloudy
 Wind from S
Wind: S 20 km/h, Gust: 31 km/h
Temperature: 15°C
Dew Point: 7°C
Humidity: 59%
Barometer: 998 hPa
Clouds: Partly cloudy
Visibility: 14 km
Cloud details: Partly cloudy 2469 m
Partly cloudy 3353 m
2021/04/11 22:00 CYZR 112200Z AUTO 18011G17KT 9SM SCT081 SCT110 15/07 A2947 RMK SLP980 DENSITY ALT 1300FT
CYVV - Wiarton
Updated: 04/11/2021 6:00pm
Nearby showers, Mostly cloudy
Nearby showers, Mostly cloudy
 Wind from E
Wind: E 22 km/h, Gust: 31 km/h
Temperature: 17°C
Dew Point: 11°C
Humidity: 68%
Barometer: 998.3 hPa
Summary: Nearby Showers
Clouds: Mostly cloudy
Visibility: 24 km
Cloud details: Few Clouds 914 m
Partly cloudy 3658 m
Mostly cloudy 6096 m
2021/04/11 22:00 CYVV 112200Z 09012G17KT 15SM VCSH FEW030TCU SCT120 BKN200 17/11 A2948 RMK TCU1AC2CS3 SLP986 DENSITY ALT 1700FT
 
CYPQ - Peterborough
Updated: 04/11/2021 6:04pm
Light rain, Overcast
Light rain, Overcast
 Wind from S
Wind: S 20 km/h
Temperature: 15°C
Dew Point: 13°C
Humidity: 88%
Barometer: 1000.7 hPa
Summary: Light rain
Clouds: Overcast
Visibility: 14 km
Cloud details: Mostly cloudy 457 m
Overcast 671 m
2021/04/11 22:04 CYPQ 112204Z AUTO 17011KT 9SM -RA BKN015 OVC022 15/13 A2955 RMK SLP010 DENSITY ALT 1200FT
CYTR - Trenton
Updated: 04/11/2021 6:00pm
Light rain, Showers, Overcast
Light rain, Showers, Overcast
 Wind from NNE
Wind: NNE 9 km/h
Temperature: 16°C
Dew Point: 15°C
Humidity: 94%
Barometer: 1000.7 hPa
Summary: Light rain, Showers
Clouds: Overcast
Visibility: 24 km
Cloud details: Few Clouds 1250 m
Overcast 2438 m
2021/04/11 22:00 CYTR 112200Z 03005KT 15SM -SHRA FEW041 OVC080 16/15 A2955 RMK SC2AC6 SLP009